createdAt,value
2023-08-11T00:00:01.910Z,83.7
2023-08-11T00:01:03.060Z,83.8
2023-08-11T00:02:01.811Z,83.7
2023-08-11T00:03:02.959Z,83.9
2023-08-11T00:04:01.753Z,83.8
2023-08-11T00:05:03.859Z,83.6
2023-08-11T00:06:01.667Z,83.6
2023-08-11T00:07:03.754Z,84.4
2023-08-11T00:08:01.574Z,84.6
2023-08-11T00:09:02.069Z,84.7
2023-08-11T00:10:01.570Z,84.4
2023-08-11T00:11:02.001Z,84.4
2023-08-11T00:12:03.139Z,84.2
2023-08-11T00:13:01.938Z,84.2
2023-08-11T00:14:01.443Z,83.9
2023-08-11T00:15:01.868Z,83.6
2023-08-11T00:16:03.089Z,83
2023-08-11T00:17:01.809Z,83.6
2023-08-11T00:18:01.277Z,83.6
2023-08-11T00:19:01.761Z,83.5
2023-08-11T00:20:03.836Z,83.4
2023-08-11T00:21:02.849Z,84
2023-08-11T00:22:03.779Z,84.1
2023-08-11T00:23:03.200Z,84.2
2023-08-11T00:24:02.063Z,84.3
2023-08-11T00:25:03.156Z,84.5
2023-08-11T00:26:01.994Z,84.6
2023-08-11T00:27:01.440Z,84.5
2023-08-11T00:28:01.973Z,84.3
2023-08-11T00:29:03.095Z,84.5
2023-08-11T00:30:03.523Z,84.2
2023-08-11T00:31:01.400Z,84.2
2023-08-11T00:32:01.806Z,84.3
2023-08-11T00:33:01.305Z,84.3
2023-08-11T00:34:01.751Z,84.5
2023-08-11T00:35:03.837Z,84.2
2023-08-11T00:36:03.326Z,84.1
2023-08-11T00:37:02.142Z,84.3
2023-08-11T00:38:01.623Z,84.5
2023-08-11T00:39:03.744Z,84.3
2023-08-11T00:40:01.537Z,84.5
2023-08-11T00:41:03.665Z,84.4
2023-08-11T00:42:03.053Z,84.5
2023-08-11T00:43:01.931Z,84.7
2023-08-11T00:44:03.017Z,84.7
2023-08-11T00:45:01.863Z,84.9
2023-08-11T00:46:01.428Z,84.9
2023-08-11T00:47:03.446Z,84.8
2023-08-11T00:48:02.969Z,84.8
2023-08-11T00:49:01.700Z,84.6
2023-08-11T00:50:02.218Z,84.7
2023-08-11T00:51:01.685Z,84.6
2023-08-11T00:52:02.138Z,84.8
2023-08-11T00:53:01.611Z,84.9
2023-08-11T00:54:02.111Z,84.9
2023-08-11T00:55:01.596Z,84.9
2023-08-11T00:56:03.661Z,84.9
2023-08-11T00:57:01.543Z,85.1
2023-08-11T00:58:03.633Z,85.1
2023-08-11T00:59:01.475Z,85.1
2023-08-11T01:00:03.569Z,84.5
2023-08-11T01:01:03.037Z,84.8
2023-08-11T01:02:01.839Z,85
2023-08-11T01:03:03.035Z,85
2023-08-11T01:04:03.408Z,85
2023-08-11T01:05:03.876Z,85
2023-08-11T01:06:01.656Z,84.9
2023-08-11T01:07:03.815Z,85
2023-08-11T01:08:03.286Z,85
2023-08-11T01:09:02.085Z,84.9
2023-08-11T01:10:03.181Z,84.9
2023-08-11T01:11:03.626Z,85.1
2023-08-11T01:12:01.441Z,85.2
2023-08-11T01:13:03.568Z,85
2023-08-11T01:14:01.339Z,85.1
2023-08-11T01:15:01.836Z,85.1
2023-08-11T01:16:01.324Z,85.2
2023-08-11T01:17:01.775Z,85.2
2023-08-11T01:18:02.346Z,85.2
2023-08-11T01:19:01.655Z,85.1
2023-08-11T01:20:02.112Z,85
2023-08-11T01:21:03.262Z,84.7
2023-08-11T01:22:03.703Z,84.7
2023-08-11T01:23:01.572Z,84.8
2023-08-11T01:24:01.990Z,85.2
2023-08-11T01:25:01.466Z,85.6
2023-08-11T01:26:01.961Z,85.5
2023-08-11T01:27:01.451Z,85.5
2023-08-11T01:28:03.476Z,85.6
2023-08-11T01:29:01.353Z,85.7
2023-08-11T01:30:01.826Z,85.7
2023-08-11T01:31:01.377Z,85.7
2023-08-11T01:32:03.440Z,85.8
2023-08-11T01:33:02.283Z,85.8
2023-08-11T01:34:01.717Z,85.7
2023-08-11T01:35:03.807Z,85.9
2023-08-11T01:36:03.279Z,85.7
2023-08-11T01:37:03.819Z,85.6
2023-08-11T01:38:01.562Z,85.5
2023-08-11T01:39:02.037Z,85.4
2023-08-11T01:40:01.508Z,85.6
2023-08-11T01:41:02.004Z,85.6
2023-08-11T01:42:01.416Z,85.3
2023-08-11T01:43:01.976Z,85.2
2023-08-11T01:44:01.466Z,85.5
2023-08-11T01:45:01.901Z,85.4
2023-08-11T01:46:01.376Z,85.2
2023-08-11T01:47:01.845Z,85.1
2023-08-11T01:48:01.296Z,85.2
2023-08-11T01:49:03.501Z,85.2
2023-08-11T01:50:03.878Z,84.9
2023-08-11T01:51:03.380Z,84.7
2023-08-11T01:52:02.156Z,84.7
2023-08-11T01:53:01.632Z,84.9
2023-08-11T01:54:02.068Z,85
2023-08-11T01:55:01.553Z,85.1
2023-08-11T01:56:03.691Z,84.9
2023-08-11T01:57:01.495Z,84.9
2023-08-11T01:58:01.971Z,84.8
2023-08-11T01:59:01.417Z,84.8
2023-08-11T02:00:01.870Z,85
2023-08-11T02:01:03.017Z,85.2
2023-08-11T02:02:03.471Z,85.6
2023-08-11T02:03:01.374Z,85.3
2023-08-11T02:04:01.838Z,85.3
2023-08-11T02:05:02.212Z,85.4
2023-08-11T02:06:01.672Z,85.7
2023-08-11T02:07:02.195Z,85.7
2023-08-11T02:08:01.612Z,85.8
2023-08-11T02:09:02.118Z,86.1
2023-08-11T02:10:01.533Z,86.1
2023-08-11T02:11:03.676Z,86.3
2023-08-11T02:12:01.491Z,86.4
2023-08-11T02:13:02.043Z,86.3
2023-08-11T02:14:01.442Z,86.3
2023-08-11T02:15:01.921Z,86.3
2023-08-11T02:16:03.141Z,86.1
2023-08-11T02:17:01.885Z,86.1
2023-08-11T02:18:01.306Z,86.1
2023-08-11T02:19:03.457Z,86.2
2023-08-11T02:20:03.821Z,86.3
2023-08-11T02:21:03.995Z,86.4
2023-08-11T02:22:01.513Z,86.6
2023-08-11T02:23:03.668Z,86.5
2023-08-11T02:24:03.024Z,86.6
2023-08-11T02:25:03.533Z,86.7
2023-08-11T02:26:01.312Z,86.5
2023-08-11T02:27:01.821Z,86.4
2023-08-11T02:28:01.280Z,86.6
2023-08-11T02:29:03.395Z,86.4
2023-08-11T02:30:02.156Z,86.4
2023-08-11T02:31:01.665Z,86.5
2023-08-11T02:32:02.226Z,86.6
2023-08-11T02:33:03.288Z,86.5
2023-08-11T02:34:03.718Z,86.5
2023-08-11T02:35:03.216Z,86.4
2023-08-11T02:36:03.569Z,86.2
2023-08-11T02:37:03.067Z,86.3
2023-08-11T02:38:01.908Z,85.8
2023-08-11T02:39:01.343Z,85.4
2023-08-11T02:40:01.895Z,85.1
2023-08-11T02:41:02.926Z,85.2
2023-08-11T02:42:01.703Z,85.5
2023-08-11T02:43:02.205Z,86
2023-08-11T02:44:01.644Z,85.9
2023-08-11T02:45:02.152Z,85.8
2023-08-11T02:46:01.619Z,85.8
2023-08-11T02:47:03.727Z,85.7
2023-08-11T02:48:01.539Z,85.8
2023-08-11T02:49:02.041Z,85.7
2023-08-11T02:50:03.137Z,85.8
2023-08-11T02:51:03.582Z,85.8
2023-08-11T02:52:01.351Z,85.6
2023-08-11T02:53:01.879Z,85.6
2023-08-11T02:54:02.925Z,85.7
2023-08-11T02:55:03.402Z,85.7
2023-08-11T02:56:02.224Z,85.7
2023-08-11T02:57:01.701Z,86.1
2023-08-11T02:58:02.176Z,86.1
2023-08-11T02:59:01.647Z,86
2023-08-11T03:00:02.129Z,86
2023-08-11T03:01:03.213Z,86.1
2023-08-11T03:02:03.721Z,86
2023-08-11T03:03:01.563Z,86.1
2023-08-11T03:04:03.536Z,86.2
2023-08-11T03:05:01.362Z,86
2023-08-11T03:06:01.831Z,85.8
2023-08-11T03:07:01.304Z,85.2
2023-08-11T03:08:01.796Z,85.5
2023-08-11T03:09:02.271Z,85.8
2023-08-11T03:10:01.694Z,85.9
2023-08-11T03:11:02.201Z,86
2023-08-11T03:12:03.301Z,86
2023-08-11T03:13:03.736Z,86
2023-08-11T03:14:01.534Z,85.7
2023-08-11T03:15:03.733Z,85.5
2023-08-11T03:16:01.517Z,85.4
2023-08-11T03:17:01.952Z,85.4
2023-08-11T03:18:01.453Z,85.1
2023-08-11T03:19:03.472Z,84.8
2023-08-11T03:20:01.268Z,84.5
2023-08-11T03:21:17.347Z,84.4
2023-08-11T03:22:03.887Z,84.2
2023-08-11T03:23:03.346Z,84.6
2023-08-11T03:24:02.191Z,84.8
2023-08-11T03:25:01.633Z,84.7
2023-08-11T03:26:02.125Z,85
2023-08-11T03:27:03.239Z,85.1
2023-08-11T03:28:02.042Z,85.2
2023-08-11T03:29:01.503Z,85.1
2023-08-11T03:30:03.639Z,85
2023-08-11T03:31:01.471Z,85.3
2023-08-11T03:32:01.944Z,85.6
2023-08-11T03:33:03.111Z,85.5
2023-08-11T03:34:01.815Z,85.6
2023-08-11T03:35:01.371Z,85.7
2023-08-11T03:36:01.789Z,85.7
2023-08-11T03:37:03.887Z,85.5
2023-08-11T03:38:01.691Z,85.4
2023-08-11T03:39:02.179Z,85.3
2023-08-11T03:40:01.620Z,85.4
2023-08-11T03:41:02.751Z,85.8
2023-08-11T03:42:01.565Z,86
2023-08-11T03:43:03.700Z,86.2
2023-08-11T03:44:01.480Z,86.6
2023-08-11T03:45:03.587Z,86.9
2023-08-11T03:46:01.416Z,86.8
2023-08-11T03:47:01.900Z,86.8
2023-08-11T03:48:01.393Z,86.8
2023-08-11T03:49:03.512Z,86.7
2023-08-11T03:50:01.242Z,86.8
2023-08-11T03:51:01.756Z,86.9
2023-08-11T03:52:02.233Z,86.8
2023-08-11T03:53:01.672Z,86.8
2023-08-11T03:54:02.251Z,86.8
2023-08-11T03:55:01.650Z,86.8
2023-08-11T03:56:02.086Z,86.8
2023-08-11T03:57:01.570Z,86.8
2023-08-11T03:58:02.011Z,86.8
2023-08-11T03:59:01.588Z,86.8
2023-08-11T04:00:02.144Z,86.7
2023-08-11T04:01:03.137Z,86.7
2023-08-11T04:02:01.905Z,86.6
2023-08-11T04:03:03.104Z,86.7
2023-08-11T04:04:03.489Z,86.6
2023-08-11T04:06:01.746Z,86.6
2023-08-11T04:07:02.216Z,86.5
2023-08-11T04:08:01.671Z,86.5
2023-08-11T04:09:03.816Z,86.5
2023-08-11T04:10:01.642Z,86.5
2023-08-11T04:11:02.073Z,86.5
2023-08-11T04:12:03.241Z,86.3
2023-08-11T04:13:03.614Z,86.4
2023-08-11T04:14:01.492Z,86.6
2023-08-11T04:15:01.957Z,86.6
2023-08-11T04:16:03.022Z,86.7
2023-08-11T04:17:03.532Z,86.8
2023-08-11T04:18:02.983Z,86.6
2023-08-11T04:19:03.396Z,86.7
2023-08-11T04:20:02.195Z,86.6
2023-08-11T04:21:01.723Z,86.5
2023-08-11T04:22:02.122Z,86.4
2023-08-11T04:23:01.543Z,86.2
2023-08-11T04:24:02.046Z,86.5
2023-08-11T04:25:03.180Z,86.4
2023-08-11T04:26:01.938Z,86.5
2023-08-11T04:27:01.398Z,86.6
2023-08-11T04:28:01.865Z,86.4
2023-08-11T04:29:01.312Z,86.5
2023-08-11T04:30:01.871Z,86.9
2023-08-11T04:31:03.910Z,87
2023-08-11T04:32:01.725Z,87
2023-08-11T04:33:03.943Z,87
2023-08-11T04:34:01.633Z,87.1
2023-08-11T04:35:02.113Z,87
2023-08-11T04:36:01.635Z,87.1
2023-08-11T04:37:05.318Z,87.1
2023-08-11T04:38:03.179Z,87.1
2023-08-11T04:39:02.012Z,87.1
2023-08-11T04:40:01.465Z,87
2023-08-11T04:41:01.932Z,87.1
2023-08-11T04:42:01.420Z,87.1
2023-08-11T04:43:01.922Z,87.2
2023-08-11T04:44:01.326Z,87.2
2023-08-11T04:45:03.492Z,87.1
2023-08-11T04:46:01.287Z,87.1
2023-08-11T04:47:03.337Z,87.1
2023-08-11T04:48:02.245Z,87
2023-08-11T04:49:03.273Z,87.1
2023-08-11T04:50:02.102Z,87.2
2023-08-11T04:51:01.605Z,87.4
2023-08-11T04:52:02.059Z,87.3
2023-08-11T04:53:01.531Z,87.3
2023-08-11T04:54:02.106Z,87.3
2023-08-11T04:55:03.143Z,87.4
2023-08-11T04:56:02.050Z,87.5
2023-08-11T04:57:01.456Z,87.6
2023-08-11T04:58:02.027Z,87.6
2023-08-11T04:59:01.348Z,87.6
2023-08-11T05:00:04.049Z,87.6
2023-08-11T05:01:01.306Z,87.3
2023-08-11T05:02:01.826Z,87
2023-08-11T05:03:02.300Z,86.8
2023-08-11T05:04:01.741Z,86.9
2023-08-11T05:05:03.797Z,87.2
2023-08-11T05:06:06.739Z,87.3
2023-08-11T05:07:02.122Z,87.4
2023-08-11T05:08:01.647Z,87.5
2023-08-11T05:09:02.139Z,87.6
2023-08-11T05:10:01.612Z,87.6
2023-08-11T05:11:03.744Z,87.7
2023-08-11T05:12:03.224Z,87.8
2023-08-11T05:13:02.141Z,87.6
2023-08-11T05:14:01.529Z,87.6
2023-08-11T05:15:03.674Z,87.7
2023-08-11T05:16:01.502Z,87.8
2023-08-11T05:17:04.122Z,87.9
2023-08-11T05:18:03.165Z,87.9
2023-08-11T05:19:01.904Z,87.9
2023-08-11T05:20:01.424Z,87.9
2023-08-11T05:21:03.560Z,87.9
2023-08-11T05:22:01.357Z,88
2023-08-11T05:23:01.824Z,88.1
2023-08-11T05:24:01.307Z,88.2
2023-08-11T05:25:01.838Z,88.2
2023-08-11T05:26:01.296Z,88.3
2023-08-11T05:27:01.776Z,88.3
2023-08-11T05:28:02.958Z,88.3
2023-08-11T05:29:03.404Z,88.2
2023-08-11T05:30:02.201Z,88.1
2023-08-11T05:31:01.696Z,88
2023-08-11T05:32:03.920Z,87.9
2023-08-11T05:33:01.645Z,87.9
2023-08-11T05:34:02.113Z,87.9
2023-08-11T05:35:01.601Z,87.7
2023-08-11T05:36:03.780Z,87.4
2023-08-11T05:37:03.255Z,87.1
2023-08-11T05:38:02.081Z,87
2023-08-11T05:39:01.552Z,86.8
2023-08-11T05:40:03.666Z,86.6
2023-08-11T05:41:03.124Z,86.4
2023-08-11T05:42:01.974Z,86.1
2023-08-11T05:43:01.464Z,85.9
2023-08-11T05:44:03.536Z,85.9
2023-08-11T05:45:03.007Z,85.9
2023-08-11T05:46:01.803Z,85.7
2023-08-11T05:47:01.289Z,85.4
2023-08-11T05:48:01.800Z,85.3
2023-08-11T05:49:02.216Z,85.1
2023-08-11T05:50:03.311Z,85.1
2023-08-11T05:51:02.121Z,85.1
2023-08-11T05:52:01.555Z,85
2023-08-11T05:53:02.072Z,85
2023-08-11T05:54:03.142Z,84.5
2023-08-11T05:55:01.963Z,84.3
2023-08-11T05:56:03.000Z,83.9
2023-08-11T05:57:03.507Z,83.6
2023-08-11T05:58:01.306Z,83.4
2023-08-11T05:59:03.366Z,83.3
2023-08-11T06:00:03.831Z,83.1
2023-08-11T06:01:01.670Z,83.3
2023-08-11T06:02:02.071Z,83
2023-08-11T06:03:03.222Z,82.7
2023-08-11T06:04:02.026Z,82.5
2023-08-11T06:05:03.081Z,82.2
2023-08-11T06:06:01.927Z,81.8
2023-08-11T06:07:01.377Z,81.6
2023-08-11T06:08:06.625Z,81.5
2023-08-11T06:09:02.972Z,81.6
2023-08-11T06:10:02.739Z,81.4
2023-08-11T06:11:03.852Z,81.3
2023-08-11T06:12:01.637Z,81.2
2023-08-11T06:13:02.101Z,80.7
2023-08-11T06:14:01.584Z,80.5
2023-08-11T06:15:02.064Z,80.5
2023-08-11T06:16:01.511Z,80.6
2023-08-11T06:17:01.951Z,80.3
2023-08-11T06:18:01.480Z,80
2023-08-11T06:19:03.529Z,79.7
2023-08-11T06:20:02.980Z,79.5
2023-08-11T06:21:03.398Z,78.7
2023-08-11T06:22:03.918Z,78.1
2023-08-11T06:23:03.280Z,78.5
2023-08-11T06:24:03.796Z,77.8
2023-08-11T06:25:03.194Z,78.4
2023-08-11T06:26:01.998Z,77.7
2023-08-11T06:27:01.471Z,78.1
2023-08-11T06:28:01.951Z,77.8
2023-08-11T06:29:03.042Z,77.3
2023-08-11T06:30:01.831Z,77.5
2023-08-11T06:31:03.035Z,77.1
2023-08-11T06:32:01.794Z,77.2
2023-08-11T06:33:01.266Z,77.8
2023-08-11T06:34:01.696Z,77
2023-08-11T06:35:02.209Z,75.8
2023-08-11T06:36:01.643Z,75.9
2023-08-11T06:37:03.727Z,75.9
2023-08-11T06:38:01.557Z,76.3
2023-08-11T06:39:01.980Z,76.4
2023-08-11T06:40:01.493Z,77
2023-08-11T06:41:01.916Z,77.2
2023-08-11T06:42:02.963Z,75.7
2023-08-11T06:43:03.490Z,75.1
2023-08-11T06:44:01.262Z,74.8
2023-08-11T06:45:03.397Z,75.1
2023-08-11T06:46:02.206Z,74.9
2023-08-11T06:47:03.241Z,74.5
2023-08-11T06:48:03.722Z,74.7
2023-08-11T06:49:01.562Z,74.6
2023-08-11T06:50:02.009Z,74.8
2023-08-11T06:51:01.512Z,74.4
2023-08-11T06:52:01.941Z,74.5
2023-08-11T06:53:01.377Z,74.4
2023-08-11T06:54:01.901Z,73.9
2023-08-11T06:55:01.312Z,73.5
2023-08-11T06:56:01.758Z,73.7
2023-08-11T06:57:02.223Z,73.4
2023-08-11T06:58:01.687Z,73
2023-08-11T06:59:02.097Z,72.6
2023-08-11T07:00:03.256Z,72
2023-08-11T07:01:02.101Z,71.7
2023-08-11T07:02:01.647Z,72
2023-08-11T07:03:02.070Z,73.7
2023-08-11T07:04:03.122Z,72.7
2023-08-11T07:05:03.541Z,72.5
2023-08-11T07:06:03.103Z,71.9
2023-08-11T07:07:01.998Z,70.9
2023-08-11T07:08:01.349Z,71.3
2023-08-11T07:09:03.476Z,71.2
2023-08-11T07:10:04.417Z,72.1
2023-08-11T07:11:03.397Z,73.1
2023-08-11T07:12:02.174Z,73.5
2023-08-11T07:13:01.696Z,72
2023-08-11T07:14:02.140Z,72
2023-08-11T07:15:01.617Z,72.5
2023-08-11T07:16:02.051Z,72.8
2023-08-11T07:17:01.552Z,70.9
2023-08-11T07:18:01.975Z,70.6
2023-08-11T07:19:03.144Z,72.5
2023-08-11T07:20:01.893Z,71.6
2023-08-11T07:21:01.342Z,70.5
2023-08-11T07:22:03.403Z,70.8
2023-08-11T07:24:03.360Z,70.2
2023-08-11T07:25:03.835Z,70.4
2023-08-11T07:26:01.623Z,69.8
2023-08-11T07:27:02.111Z,69.2
2023-08-11T07:28:01.536Z,69.5
2023-08-11T07:29:03.694Z,70.4
2023-08-11T07:30:01.470Z,70.7
2023-08-11T07:31:01.983Z,70.6
2023-08-11T07:32:01.385Z,70
2023-08-11T07:33:03.561Z,70.2
2023-08-11T07:34:02.905Z,70.2
2023-08-11T07:35:01.768Z,69.9
2023-08-11T07:36:03.922Z,68.9
2023-08-11T07:37:01.656Z,69.3
2023-08-11T07:38:03.836Z,70.2
2023-08-11T07:39:20.565Z,68.5
2023-08-11T07:40:02.050Z,69.4
2023-08-11T07:41:03.346Z,69.6
2023-08-11T07:42:01.963Z,69.2
2023-08-11T07:43:01.449Z,68.3
2023-08-11T07:44:01.880Z,68.6
2023-08-11T07:45:03.042Z,69.1
2023-08-11T07:46:03.464Z,69.3
2023-08-11T07:47:02.960Z,69.4
2023-08-11T07:48:01.785Z,69.7
2023-08-11T07:49:02.241Z,68.9
2023-08-11T07:50:03.388Z,69.1
2023-08-11T07:51:03.791Z,69.2
2023-08-11T07:52:03.316Z,67.2
2023-08-11T07:53:03.692Z,67.5
2023-08-11T07:54:01.522Z,69.3
2023-08-11T07:55:02.092Z,69.5
2023-08-11T07:56:01.429Z,69.4
2023-08-11T07:57:03.566Z,69.6
2023-08-11T07:58:01.338Z,69.7
2023-08-11T07:59:02.025Z,68.8
2023-08-11T08:00:01.289Z,67.8
2023-08-11T08:01:01.761Z,68.3
2023-08-11T08:02:02.271Z,68.7
2023-08-11T08:03:03.517Z,68.5
2023-08-11T08:04:02.164Z,69.2
2023-08-11T08:05:12.271Z,68.5
2023-08-11T08:06:03.698Z,67.9
2023-08-11T08:07:01.498Z,67.7
2023-08-11T08:08:03.606Z,68.4
2023-08-11T08:09:03.056Z,68.9
2023-08-11T08:10:01.901Z,68.7
2023-08-11T08:11:03.042Z,68.7
2023-08-11T08:12:01.781Z,68.9
2023-08-11T08:13:03.946Z,69.5
2023-08-11T08:14:03.420Z,69.2
2023-08-11T08:15:02.202Z,69.1
2023-08-11T08:16:01.618Z,68.4
2023-08-11T08:17:02.087Z,68
2023-08-11T08:18:01.674Z,68.5
2023-08-11T08:19:01.999Z,66.9
2023-08-11T08:20:01.462Z,66.9
2023-08-11T08:21:01.956Z,65.7
2023-08-11T08:22:03.026Z,66.2
2023-08-11T08:23:01.882Z,66.6
2023-08-11T08:24:01.306Z,65.7
2023-08-11T08:25:01.815Z,66.8
2023-08-11T08:26:02.229Z,65.2
2023-08-11T08:27:03.348Z,66
2023-08-11T08:28:06.705Z,64.6
2023-08-11T08:29:03.244Z,65.1
2023-08-11T08:30:02.055Z,64.4
2023-08-11T08:31:03.157Z,64.1
2023-08-11T08:32:01.978Z,63.5
2023-08-11T08:33:03.153Z,63.7
2023-08-11T08:34:01.942Z,63.6
2023-08-11T08:35:02.962Z,65.8
2023-08-11T08:36:03.411Z,64.6
2023-08-11T08:37:02.241Z,64.8
2023-08-11T08:38:01.708Z,64.9
2023-08-11T08:39:02.215Z,64.8
2023-08-11T08:40:03.343Z,65.4
2023-08-11T08:41:02.096Z,65.2
2023-08-11T08:42:01.571Z,64.5
2023-08-11T08:43:02.053Z,64.7
2023-08-11T08:44:01.502Z,63.2
2023-08-11T08:45:01.984Z,62.1
2023-08-11T08:46:01.480Z,61.3
2023-08-11T08:47:03.627Z,62.9
2023-08-11T08:48:01.479Z,62.2
2023-08-11T08:49:01.817Z,62.5
2023-08-11T08:50:02.868Z,63.3
2023-08-11T08:51:01.726Z,63.3
2023-08-11T08:52:04.741Z,64.2
2023-08-11T08:53:03.310Z,62.7
2023-08-11T08:54:03.788Z,62.3
2023-08-11T08:55:01.590Z,62.4
2023-08-11T08:56:02.060Z,65.6
2023-08-11T08:57:01.501Z,64.5
2023-08-11T08:58:01.964Z,63.2
2023-08-11T08:59:03.085Z,62.9
2023-08-11T09:00:03.552Z,65.6
2023-08-11T09:01:01.345Z,63.4
2023-08-11T09:02:06.064Z,63.2
2023-08-11T09:03:04.014Z,64.7
2023-08-11T09:04:01.810Z,62.2
2023-08-11T09:05:03.789Z,63.9
2023-08-11T09:06:03.233Z,62.5
2023-08-11T09:07:03.763Z,62.7
2023-08-11T09:08:01.469Z,62.9
2023-08-11T09:09:01.939Z,63.8
2023-08-11T09:10:01.381Z,62.2
2023-08-11T09:11:01.872Z,61.9
2023-08-11T09:12:03.012Z,63
2023-08-11T09:13:01.786Z,61.3
2023-08-11T09:14:02.274Z,62.8
2023-08-11T09:15:01.718Z,61.5
2023-08-11T09:16:02.372Z,60.3
2023-08-11T09:17:01.706Z,61.2
2023-08-11T09:18:03.851Z,61.3
2023-08-11T09:19:01.606Z,61
2023-08-11T09:20:03.777Z,61.4
2023-08-11T09:21:03.141Z,60.8
2023-08-11T09:22:01.924Z,59.9
2023-08-11T09:23:01.400Z,59.4
2023-08-11T09:24:03.494Z,61
2023-08-11T09:25:02.944Z,60.2
2023-08-11T09:26:03.371Z,60.6
2023-08-11T09:27:02.214Z,62.5
2023-08-11T09:28:01.659Z,62.1
2023-08-11T09:29:02.111Z,62.6
2023-08-11T09:30:01.616Z,60.9
2023-08-11T09:31:03.740Z,62.7
2023-08-11T09:32:03.358Z,59.2
2023-08-11T09:33:03.609Z,60.9
2023-08-11T09:34:01.384Z,60.9
2023-08-11T09:35:03.492Z,60.5
2023-08-11T09:36:01.265Z,60.4
2023-08-11T09:37:03.406Z,59.2
2023-08-11T09:38:03.860Z,59.7
2023-08-11T09:39:03.286Z,60
2023-08-11T09:40:02.125Z,60.4
2023-08-11T09:41:01.596Z,60.2
2023-08-11T09:42:02.001Z,60.8
2023-08-11T09:43:03.803Z,60.5
2023-08-11T09:44:03.256Z,60.8
2023-08-11T09:45:03.483Z,60.9
2023-08-11T09:46:01.710Z,61.2
2023-08-11T09:47:14.931Z,59
2023-08-11T09:48:02.265Z,59.4
2023-08-11T09:49:03.333Z,58.9
2023-08-11T09:50:02.081Z,60
2023-08-11T09:51:01.598Z,60.6
2023-08-11T09:52:02.024Z,60.6
2023-08-11T09:53:01.498Z,60.8
2023-08-11T09:54:04.178Z,61.9
2023-08-11T09:55:03.056Z,61.3
2023-08-11T09:56:03.531Z,61.6
2023-08-11T09:57:02.962Z,62
2023-08-11T09:58:01.856Z,63
2023-08-11T09:59:02.917Z,62
2023-08-11T10:00:01.728Z,61.5
2023-08-11T10:01:14.536Z,61.8
2023-08-11T10:02:01.706Z,62.2
2023-08-11T10:03:02.241Z,59.9
2023-08-11T10:04:01.718Z,59.8
2023-08-11T10:05:02.076Z,62.1
2023-08-11T10:06:01.557Z,61.6
2023-08-11T10:07:03.683Z,61
2023-08-11T10:08:01.496Z,60.7
2023-08-11T10:09:03.654Z,61.2
2023-08-11T10:10:01.439Z,61.6
2023-08-11T10:11:03.572Z,60.7
2023-08-11T10:12:01.346Z,61.7
2023-08-11T10:13:01.901Z,60.5
2023-08-11T10:14:02.860Z,60.6
2023-08-11T10:15:01.774Z,60.5
2023-08-11T10:16:02.239Z,59.7
2023-08-11T10:17:03.331Z,58.8
2023-08-11T10:18:02.192Z,59.7
2023-08-11T10:19:01.618Z,60.6
2023-08-11T10:20:02.034Z,60.2
2023-08-11T10:21:01.554Z,59.9
2023-08-11T10:22:02.027Z,62.3
2023-08-11T10:23:01.516Z,61.1
2023-08-11T10:24:01.970Z,60.6
2023-08-11T10:25:01.484Z,59.8
2023-08-11T10:26:01.916Z,59
2023-08-11T10:27:01.377Z,59.7
2023-08-11T10:28:03.518Z,59.9
2023-08-11T10:29:01.316Z,60.1
2023-08-11T10:30:01.780Z,60.4
2023-08-11T10:31:02.317Z,59.7
2023-08-11T10:32:01.718Z,60.1
2023-08-11T10:33:02.238Z,59.7
2023-08-11T10:34:03.319Z,62.3
2023-08-11T10:35:03.827Z,60.5
2023-08-11T10:36:03.257Z,60.7
2023-08-11T10:37:02.054Z,60.5
2023-08-11T10:38:01.516Z,60.2
2023-08-11T10:39:01.972Z,60.4
2023-08-11T10:40:01.408Z,60
2023-08-11T10:41:01.856Z,60.6
2023-08-11T10:42:01.365Z,61.8
2023-08-11T10:43:03.522Z,61.9
2023-08-11T10:44:01.242Z,62
2023-08-11T10:45:01.732Z,61.1
2023-08-11T10:46:03.928Z,61
2023-08-11T10:47:01.744Z,60.2
2023-08-11T10:48:02.179Z,59.3
2023-08-11T10:49:03.177Z,60.3
2023-08-11T10:50:01.975Z,61.9
2023-08-11T10:51:03.082Z,60.5
2023-08-11T10:52:03.542Z,59.4
2023-08-11T10:53:01.379Z,58.9
2023-08-11T10:54:03.444Z,58.8
2023-08-11T10:55:02.887Z,60.6
2023-08-11T10:56:01.697Z,60.9
2023-08-11T10:57:03.850Z,60.7
2023-08-11T10:58:02.558Z,60.7
2023-08-11T10:59:03.795Z,60.9
2023-08-11T11:00:01.569Z,61.2
2023-08-11T11:01:03.727Z,60.7
2023-08-11T11:02:01.451Z,60.4
2023-08-11T11:03:03.537Z,59.9
2023-08-11T11:04:02.965Z,60.5
2023-08-11T11:05:01.902Z,59.2
2023-08-11T11:06:03.914Z,59.9
2023-08-11T11:07:01.743Z,61.1
2023-08-11T11:08:02.171Z,60.6
2023-08-11T11:09:01.625Z,60.4
2023-08-11T11:10:02.188Z,60.9
2023-08-11T11:11:01.570Z,61.3
2023-08-11T11:12:02.042Z,59.5
2023-08-11T11:13:03.148Z,60.8
2023-08-11T11:14:01.918Z,60.9
2023-08-11T11:15:01.406Z,59.8
2023-08-11T11:16:01.865Z,60.8
2023-08-11T11:17:02.992Z,61.6
2023-08-11T11:18:01.788Z,62.2
2023-08-11T11:19:02.249Z,60.7
2023-08-11T11:20:03.752Z,61.2
2023-08-11T11:21:02.148Z,60.8
2023-08-11T11:22:03.247Z,60.6
2023-08-11T11:23:03.733Z,60.4
2023-08-11T11:24:01.492Z,59.8
2023-08-11T11:25:01.961Z,60.8
2023-08-11T11:26:01.438Z,60.6
2023-08-11T11:27:01.890Z,59.7
2023-08-11T11:28:01.360Z,60
2023-08-11T11:29:03.462Z,61.6
2023-08-11T11:30:02.954Z,60.9
2023-08-11T11:31:01.725Z,62.5
2023-08-11T11:32:02.160Z,60.1
2023-08-11T11:33:04.494Z,60.1
2023-08-11T11:34:02.206Z,59.8
2023-08-11T11:35:01.563Z,58.9
2023-08-11T11:36:03.663Z,60.2
2023-08-11T11:37:03.167Z,60.2
2023-08-11T11:38:03.581Z,60.9
2023-08-11T11:39:04.900Z,61.2
2023-08-11T11:40:01.855Z,60.6
2023-08-11T11:41:01.346Z,60.1
2023-08-11T11:42:01.782Z,60.5
2023-08-11T11:43:03.928Z,60.5
2023-08-11T11:44:02.353Z,61.1
2023-08-11T11:45:04.189Z,60.8
2023-08-11T11:46:03.269Z,60.2
2023-08-11T11:47:02.067Z,59.8
2023-08-11T11:48:01.552Z,61.1
2023-08-11T11:49:12.676Z,61.5
2023-08-11T11:50:03.088Z,59.7
2023-08-11T11:51:04.748Z,60
2023-08-11T11:52:01.335Z,59.8
2023-08-11T11:53:03.500Z,61.8
2023-08-11T11:55:03.427Z,60.6
2023-08-11T11:56:02.198Z,61
2023-08-11T11:57:05.285Z,61.1
2023-08-11T11:58:02.101Z,61.1
2023-08-11T11:59:03.306Z,59.5
2023-08-11T12:00:02.043Z,60.1
2023-08-11T12:01:01.552Z,60
2023-08-11T12:02:02.174Z,60.6
2023-08-11T12:03:01.521Z,61.2
2023-08-11T12:04:02.116Z,61.2
2023-08-11T12:05:01.455Z,59.2
2023-08-11T12:06:01.841Z,60
2023-08-11T12:07:03.056Z,60.2
2023-08-11T12:08:01.764Z,60.7
2023-08-11T12:09:03.828Z,61.7
2023-08-11T12:10:01.669Z,58.7
2023-08-11T12:11:03.821Z,59.6
2023-08-11T12:12:01.604Z,60
2023-08-11T12:13:02.047Z,59.7
2023-08-11T12:14:01.537Z,60.3
2023-08-11T12:15:01.994Z,59.7
2023-08-11T12:16:01.513Z,59.2
2023-08-11T12:17:01.948Z,60.7
2023-08-11T12:18:01.441Z,60.6
2023-08-11T12:19:03.441Z,59.8
2023-08-11T12:20:01.277Z,59.2
2023-08-11T12:21:01.761Z,59.6
2023-08-11T12:22:03.879Z,59.9
2023-08-11T12:23:03.325Z,61
2023-08-11T12:24:02.736Z,60.3
2023-08-11T12:25:01.553Z,59.4
2023-08-11T12:26:03.707Z,58.2
2023-08-11T12:27:03.126Z,58.9
2023-08-11T12:28:01.911Z,59.7
2023-08-11T12:29:01.356Z,59.6
2023-08-11T12:30:03.485Z,61.1
2023-08-11T12:31:01.272Z,58.6
2023-08-11T12:32:01.761Z,59.4
2023-08-11T12:33:02.329Z,58.9
2023-08-11T12:34:03.266Z,59.9
2023-08-11T12:35:03.761Z,59.3
2023-08-11T12:36:01.570Z,59.7
2023-08-11T12:37:03.695Z,59.8
2023-08-11T12:38:01.503Z,60.9
2023-08-11T12:39:03.644Z,60.8
2023-08-11T12:40:03.035Z,60.9
2023-08-11T12:41:03.505Z,59.1
2023-08-11T12:42:02.970Z,60.2
2023-08-11T12:43:03.417Z,60
2023-08-11T12:44:02.244Z,59
2023-08-11T12:45:01.705Z,58.2
2023-08-11T12:46:02.190Z,58.5
2023-08-11T12:47:01.643Z,60.2
2023-08-11T12:48:02.107Z,57.9
2023-08-11T12:49:01.577Z,57.5
2023-08-11T12:50:02.025Z,58.1
2023-08-11T12:51:01.478Z,58.5
2023-08-11T12:52:03.602Z,58.7
2023-08-11T12:53:03.031Z,58.6
2023-08-11T12:54:03.484Z,58.2
2023-08-11T12:55:01.319Z,59.4
2023-08-11T12:56:03.425Z,59.9
2023-08-11T12:57:02.217Z,58.9
2023-08-11T12:58:01.716Z,58.1
2023-08-11T12:59:03.762Z,59.2
2023-08-11T13:00:01.592Z,58.8
2023-08-11T13:01:02.010Z,59.5
2023-08-11T13:02:01.556Z,59.2
2023-08-11T13:03:03.829Z,59.8
2023-08-11T13:04:01.418Z,58.6
2023-08-11T13:05:03.211Z,59.9
2023-08-11T13:06:01.890Z,58.5
2023-08-11T13:07:03.031Z,58.3
2023-08-11T13:08:03.452Z,59
2023-08-11T13:09:02.314Z,59.3
2023-08-11T13:10:01.726Z,57.4
2023-08-11T13:11:02.211Z,59.4
2023-08-11T13:12:03.359Z,57.5
2023-08-11T13:13:03.764Z,57.2
2023-08-11T13:14:01.548Z,58.1
2023-08-11T13:15:02.002Z,58.2
2023-08-11T13:16:03.171Z,58
2023-08-11T13:17:01.961Z,60
2023-08-11T13:18:01.467Z,59
2023-08-11T13:19:01.880Z,59
2023-08-11T13:20:01.323Z,59.4
2023-08-11T13:21:03.421Z,57.1
2023-08-11T13:22:01.276Z,56.9
2023-08-11T13:23:01.791Z,56.7
2023-08-11T13:24:02.230Z,57
2023-08-11T13:25:01.679Z,56.7
2023-08-11T13:26:02.147Z,56.6